createdAt,value
2017-08-30T00:00:35.025Z,0
2017-08-30T00:01:48.958Z,0
2017-08-30T00:03:03.147Z,0
2017-08-30T00:04:17.666Z,0
2017-08-30T00:05:31.248Z,0
2017-08-30T00:06:45.095Z,0
2017-08-30T00:07:58.773Z,0
2017-08-30T00:09:12.272Z,0
2017-08-30T00:10:51.444Z,0
2017-08-30T00:12:05.141Z,0
2017-08-30T00:13:18.683Z,0
2017-08-30T00:14:32.540Z,0
2017-08-30T00:15:46.787Z,0
2017-08-30T00:17:00.378Z,0
2017-08-30T00:18:13.976Z,0
2017-08-30T00:19:27.985Z,0
2017-08-30T00:20:41.496Z,0
2017-08-30T00:21:55.710Z,0
2017-08-30T00:23:09.226Z,0
2017-08-30T00:24:22.820Z,0
2017-08-30T00:25:36.700Z,0
2017-08-30T00:26:50.194Z,0
2017-08-30T00:28:03.997Z,0
2017-08-30T00:29:17.566Z,0
2017-08-30T00:30:31.107Z,0
2017-08-30T00:31:44.956Z,0
2017-08-30T00:32:58.605Z,0
2017-08-30T00:34:12.425Z,0
2017-08-30T00:35:25.952Z,0
2017-08-30T00:36:39.467Z,0
2017-08-30T00:37:53.311Z,0
2017-08-30T00:39:07.317Z,0
2017-08-30T00:40:21.166Z,0
2017-08-30T00:41:35.026Z,0
2017-08-30T00:42:48.527Z,0
2017-08-30T00:44:02.022Z,0
2017-08-30T00:45:15.564Z,0
2017-08-30T00:46:29.757Z,0
2017-08-30T00:47:43.601Z,0
2017-08-30T00:48:57.655Z,0
2017-08-30T00:50:11.593Z,0
2017-08-30T00:51:25.616Z,0
2017-08-30T00:52:39.412Z,0
2017-08-30T00:53:52.959Z,0
2017-08-30T00:55:06.838Z,0
2017-08-30T00:56:21.074Z,0
2017-08-30T00:57:34.565Z,0
2017-08-30T00:58:48.726Z,0
2017-08-30T01:00:02.305Z,0
2017-08-30T01:01:16.180Z,0
2017-08-30T01:02:29.774Z,0
2017-08-30T01:03:43.301Z,0
2017-08-30T01:04:57.111Z,0
2017-08-30T01:06:11.004Z,0
2017-08-30T01:07:24.499Z,0
2017-08-30T01:08:38.053Z,0
2017-08-30T01:09:51.577Z,0
2017-08-30T01:11:05.943Z,0
2017-08-30T01:12:19.502Z,0
2017-08-30T01:13:33.054Z,0
2017-08-30T01:14:46.771Z,0
2017-08-30T01:16:00.632Z,0
2017-08-30T01:17:14.804Z,0
2017-08-30T01:18:28.332Z,0
2017-08-30T01:19:41.826Z,0
2017-08-30T01:20:55.329Z,0
2017-08-30T01:22:08.815Z,0
2017-08-30T01:23:22.704Z,0
2017-08-30T01:24:36.731Z,0
2017-08-30T01:25:50.591Z,0
2017-08-30T01:27:04.078Z,0
2017-08-30T01:28:17.607Z,0
2017-08-30T01:29:32.720Z,0
2017-08-30T01:30:46.233Z,0
2017-08-30T01:31:59.796Z,0
2017-08-30T01:33:13.654Z,0
2017-08-30T01:34:27.161Z,0
2017-08-30T01:35:40.970Z,0
2017-08-30T01:36:54.513Z,0
2017-08-30T01:38:08.070Z,0
2017-08-30T01:39:21.600Z,0
2017-08-30T01:40:35.113Z,0
2017-08-30T01:41:48.974Z,0
2017-08-30T01:43:02.498Z,0
2017-08-30T01:44:16.154Z,0
2017-08-30T01:45:29.738Z,0
2017-08-30T01:46:43.751Z,0
2017-08-30T01:47:57.547Z,0
2017-08-30T01:49:11.141Z,0
2017-08-30T01:50:25.194Z,0
2017-08-30T01:51:39.050Z,0
2017-08-30T01:52:52.638Z,0
2017-08-30T01:54:06.442Z,0
2017-08-30T01:55:19.957Z,0
2017-08-30T01:56:33.479Z,0
2017-08-30T01:57:47.537Z,0
2017-08-30T01:59:01.029Z,0
2017-08-30T02:00:14.848Z,0
2017-08-30T02:01:28.358Z,0
2017-08-30T02:02:41.860Z,0
2017-08-30T02:03:55.838Z,0
2017-08-30T02:05:09.443Z,0
2017-08-30T02:06:23.250Z,0
2017-08-30T02:07:36.760Z,0
2017-08-30T02:08:50.245Z,0
2017-08-30T02:10:03.724Z,0
2017-08-30T02:11:17.233Z,0
2017-08-30T02:12:31.569Z,0
2017-08-30T02:13:45.691Z,0
2017-08-30T02:14:59.524Z,0
2017-08-30T02:16:13.445Z,0
2017-08-30T02:17:26.973Z,0
2017-08-30T02:18:40.768Z,0
2017-08-30T02:19:54.271Z,0
2017-08-30T02:21:07.787Z,0
2017-08-30T02:22:21.312Z,0
2017-08-30T02:23:34.804Z,0
2017-08-30T02:24:48.630Z,0
2017-08-30T02:26:02.179Z,0
2017-08-30T02:27:15.699Z,0
2017-08-30T02:28:29.216Z,0
2017-08-30T02:29:42.704Z,0
2017-08-30T02:30:56.499Z,0
2017-08-30T02:32:10.063Z,0
2017-08-30T02:33:23.575Z,0
2017-08-30T02:34:37.097Z,0
2017-08-30T02:35:50.617Z,0
2017-08-30T02:37:04.426Z,0
2017-08-30T02:38:17.955Z,0
2017-08-30T02:39:31.541Z,0
2017-08-30T02:40:45.043Z,0
2017-08-30T02:41:58.551Z,0
2017-08-30T02:43:12.560Z,0
2017-08-30T02:44:26.084Z,0
2017-08-30T02:45:39.905Z,0
2017-08-30T02:46:53.394Z,0
2017-08-30T02:48:06.904Z,0
2017-08-30T02:49:21.175Z,0
2017-08-30T02:50:35.500Z,0
2017-08-30T02:51:48.996Z,0
2017-08-30T02:53:02.570Z,0
2017-08-30T02:54:16.129Z,0
2017-08-30T02:55:30.262Z,0
2017-08-30T02:56:44.495Z,0
2017-08-30T02:57:58.175Z,0
2017-08-30T02:59:11.751Z,0
2017-08-30T03:00:25.268Z,0
2017-08-30T03:01:39.053Z,0
2017-08-30T03:02:52.544Z,0
2017-08-30T03:04:06.191Z,0
2017-08-30T03:05:19.714Z,0
2017-08-30T03:06:33.240Z,0
2017-08-30T03:07:47.024Z,0
2017-08-30T03:09:00.514Z,0
2017-08-30T03:10:14.174Z,0
2017-08-30T03:11:27.688Z,0
2017-08-30T03:12:41.540Z,0
2017-08-30T03:13:56.016Z,0
2017-08-30T03:15:09.506Z,0
2017-08-30T03:16:23.000Z,0
2017-08-30T03:17:36.539Z,0
2017-08-30T03:18:50.712Z,0
2017-08-30T03:20:05.110Z,0
2017-08-30T03:21:19.308Z,0
2017-08-30T03:22:33.002Z,0
2017-08-30T03:23:46.510Z,0
2017-08-30T03:25:00.030Z,0
2017-08-30T03:26:13.907Z,0
2017-08-30T03:27:27.462Z,0
2017-08-30T03:28:41.008Z,0
2017-08-30T03:29:54.840Z,0
2017-08-30T03:31:08.391Z,0
2017-08-30T03:32:22.187Z,0
2017-08-30T03:33:35.700Z,0
2017-08-30T03:34:49.222Z,0
2017-08-30T03:36:03.107Z,0
2017-08-30T03:37:16.625Z,0
2017-08-30T03:38:30.435Z,0
2017-08-30T03:39:44.038Z,0
2017-08-30T03:40:57.564Z,0
2017-08-30T03:42:11.064Z,0
2017-08-30T03:43:24.564Z,0
2017-08-30T03:44:38.923Z,0
2017-08-30T03:45:52.419Z,0
2017-08-30T03:47:05.927Z,0
2017-08-30T03:48:19.419Z,0
2017-08-30T03:49:33.261Z,0
2017-08-30T03:50:47.085Z,0
2017-08-30T03:52:00.595Z,0
2017-08-30T03:53:14.084Z,0
2017-08-30T03:54:27.682Z,0
2017-08-30T03:55:42.064Z,0
2017-08-30T03:56:55.857Z,0
2017-08-30T03:58:09.394Z,0
2017-08-30T03:59:22.906Z,0
2017-08-30T04:00:36.743Z,0
2017-08-30T04:01:50.462Z,0
2017-08-30T04:03:04.607Z,0
2017-08-30T04:04:18.118Z,0
2017-08-30T04:05:31.710Z,0
2017-08-30T04:06:45.211Z,0
2017-08-30T04:07:59.130Z,0
2017-08-30T04:09:12.945Z,0
2017-08-30T04:10:26.513Z,0
2017-08-30T04:11:40.056Z,0
2017-08-30T04:12:54.103Z,0
2017-08-30T04:14:07.634Z,0
2017-08-30T04:15:21.589Z,0
2017-08-30T04:16:35.098Z,0
2017-08-30T04:17:48.594Z,0
2017-08-30T04:19:02.118Z,0
2017-08-30T04:20:15.615Z,0
2017-08-30T04:21:29.487Z,0
2017-08-30T04:22:43.016Z,5
2017-08-30T04:23:56.510Z,5
2017-08-30T04:25:10.333Z,5
2017-08-30T04:26:23.883Z,5
2017-08-30T04:27:37.685Z,5
2017-08-30T04:28:51.199Z,5
2017-08-30T04:30:04.701Z,5
2017-08-30T04:31:18.262Z,5
2017-08-30T04:32:31.749Z,5
2017-08-30T04:33:45.542Z,5
2017-08-30T04:34:59.400Z,5
2017-08-30T04:36:12.907Z,5
2017-08-30T04:37:26.510Z,10
2017-08-30T04:38:40.109Z,10
2017-08-30T04:39:53.926Z,10
2017-08-30T04:41:07.761Z,10
2017-08-30T04:42:21.273Z,15
2017-08-30T04:43:34.787Z,15
2017-08-30T04:44:48.299Z,20
2017-08-30T04:46:02.093Z,20
2017-08-30T04:47:15.610Z,25
2017-08-30T04:48:29.099Z,30
2017-08-30T04:49:42.669Z,35
2017-08-30T04:50:56.180Z,35
2017-08-30T04:52:09.995Z,35
2017-08-30T04:53:23.650Z,40
2017-08-30T04:54:37.184Z,40
2017-08-30T04:55:50.727Z,45
2017-08-30T04:57:04.249Z,45
2017-08-30T04:58:18.041Z,50
2017-08-30T04:59:31.656Z,50
2017-08-30T05:00:46.053Z,55
2017-08-30T05:01:59.906Z,55
2017-08-30T05:03:13.411Z,55
2017-08-30T05:04:27.521Z,60
2017-08-30T05:05:41.148Z,60
2017-08-30T05:06:54.988Z,60
2017-08-30T05:08:08.496Z,65
2017-08-30T05:09:22.031Z,65
2017-08-30T05:10:35.865Z,65
2017-08-30T05:11:49.562Z,65
2017-08-30T05:13:03.101Z,65
2017-08-30T05:14:16.614Z,70
2017-08-30T05:15:30.135Z,70
2017-08-30T05:16:44.182Z,70
2017-08-30T05:17:57.737Z,70
2017-08-30T05:19:11.245Z,70
2017-08-30T05:20:25.200Z,75
2017-08-30T05:21:38.722Z,75
2017-08-30T05:22:53.138Z,75
2017-08-30T05:24:06.655Z,75
2017-08-30T05:25:20.161Z,80
2017-08-30T05:26:33.659Z,80
2017-08-30T05:27:47.198Z,80
2017-08-30T05:29:01.206Z,80
2017-08-30T05:30:14.760Z,85
2017-08-30T05:31:28.584Z,85
2017-08-30T05:32:42.082Z,85
2017-08-30T05:33:55.619Z,85
2017-08-30T05:35:09.485Z,90
2017-08-30T05:36:23.026Z,90
2017-08-30T05:37:36.872Z,95
2017-08-30T05:38:50.379Z,95
2017-08-30T05:40:03.888Z,95
2017-08-30T05:41:17.743Z,100
2017-08-30T05:42:31.263Z,100
2017-08-30T05:43:44.771Z,95
2017-08-30T05:44:58.379Z,95
2017-08-30T05:46:12.251Z,95
2017-08-30T05:47:26.086Z,95
2017-08-30T05:48:39.600Z,95
2017-08-30T05:49:53.464Z,95
2017-08-30T05:51:07.847Z,95
2017-08-30T05:52:34.424Z,95
2017-08-30T05:53:48.048Z,95
2017-08-30T05:55:01.548Z,95
2017-08-30T05:56:15.049Z,95
2017-08-30T05:57:28.573Z,95
2017-08-30T05:58:42.401Z,100
2017-08-30T05:59:56.228Z,100
2017-08-30T06:01:09.728Z,105
2017-08-30T06:02:23.432Z,105
2017-08-30T06:03:37.327Z,105
2017-08-30T06:04:51.500Z,110
2017-08-30T06:06:05.056Z,115
2017-08-30T06:07:18.577Z,120
2017-08-30T06:08:32.108Z,120
2017-08-30T06:09:45.614Z,125
2017-08-30T06:10:59.661Z,125
2017-08-30T06:12:13.171Z,130
2017-08-30T06:13:26.986Z,130
2017-08-30T06:14:40.522Z,135
2017-08-30T06:15:54.416Z,135
2017-08-30T06:17:08.225Z,135
2017-08-30T06:18:22.103Z,135
2017-08-30T06:19:35.610Z,135
2017-08-30T06:20:49.200Z,140
2017-08-30T06:22:02.682Z,140
2017-08-30T06:23:16.753Z,140
2017-08-30T06:24:30.268Z,140
2017-08-30T06:25:43.771Z,140
2017-08-30T06:26:57.421Z,140
2017-08-30T06:28:10.932Z,145
2017-08-30T06:29:24.765Z,145
2017-08-30T06:30:38.256Z,145
2017-08-30T06:31:51.779Z,150
2017-08-30T06:33:05.346Z,150
2017-08-30T06:34:18.851Z,155
2017-08-30T06:35:32.677Z,155
2017-08-30T06:36:46.188Z,155
2017-08-30T06:37:59.706Z,155
2017-08-30T06:39:13.252Z,150
2017-08-30T06:40:26.993Z,155
2017-08-30T06:41:41.133Z,155
2017-08-30T06:42:54.666Z,160
2017-08-30T06:44:08.192Z,160
2017-08-30T06:45:21.764Z,165
2017-08-30T06:46:35.290Z,165
2017-08-30T06:47:49.096Z,165
2017-08-30T06:49:02.952Z,165
2017-08-30T06:50:16.659Z,170
2017-08-30T06:51:30.493Z,170
2017-08-30T06:52:44.040Z,170
2017-08-30T06:53:57.832Z,170
2017-08-30T06:55:11.346Z,170
2017-08-30T06:56:24.864Z,170
2017-08-30T06:57:39.331Z,170
2017-08-30T06:58:52.940Z,175
2017-08-30T07:00:06.851Z,175
2017-08-30T07:01:20.406Z,175
2017-08-30T07:02:33.907Z,180
2017-08-30T07:03:47.417Z,180
2017-08-30T07:05:01.128Z,180
2017-08-30T07:06:15.008Z,185
2017-08-30T07:07:28.855Z,185
2017-08-30T07:08:42.362Z,190
2017-08-30T07:09:55.876Z,190
2017-08-30T07:11:09.387Z,190
2017-08-30T07:12:23.549Z,190
2017-08-30T07:13:37.064Z,190
2017-08-30T07:14:50.557Z,185
2017-08-30T07:16:04.080Z,190
2017-08-30T07:17:17.652Z,190
2017-08-30T07:18:31.530Z,190
2017-08-30T07:19:45.043Z,185
2017-08-30T07:20:58.567Z,185
2017-08-30T07:22:12.201Z,180
2017-08-30T07:23:25.742Z,180
2017-08-30T07:24:39.558Z,185
2017-08-30T07:25:53.088Z,180
2017-08-30T07:27:06.592Z,185
2017-08-30T07:28:20.446Z,185
2017-08-30T07:29:33.967Z,190
2017-08-30T07:30:47.772Z,185
2017-08-30T07:32:01.281Z,195
2017-08-30T07:33:15.164Z,200
2017-08-30T07:34:28.723Z,205
2017-08-30T07:35:42.239Z,210
2017-08-30T07:36:56.789Z,215
2017-08-30T07:38:10.355Z,220
2017-08-30T07:39:24.198Z,215
2017-08-30T07:40:38.099Z,210
2017-08-30T07:41:51.593Z,205
2017-08-30T07:43:05.520Z,200
2017-08-30T07:44:19.053Z,195
2017-08-30T07:45:32.579Z,190
2017-08-30T07:46:46.112Z,190
2017-08-30T07:47:59.971Z,195
2017-08-30T07:49:13.777Z,190
2017-08-30T07:50:27.300Z,195
2017-08-30T07:51:40.845Z,200
2017-08-30T07:52:54.382Z,195
2017-08-30T07:54:07.895Z,205
2017-08-30T07:55:21.754Z,200
2017-08-30T07:56:35.302Z,200
2017-08-30T07:57:48.987Z,200
2017-08-30T07:59:02.905Z,185
2017-08-30T08:00:16.783Z,185
2017-08-30T08:01:30.974Z,180
2017-08-30T08:02:44.513Z,180
2017-08-30T08:03:58.088Z,180
2017-08-30T08:05:11.611Z,180
2017-08-30T08:06:25.271Z,180
2017-08-30T08:07:39.098Z,185
2017-08-30T08:08:52.968Z,175
2017-08-30T08:10:06.482Z,175
2017-08-30T08:11:19.986Z,170
2017-08-30T08:12:33.600Z,165
2017-08-30T08:13:47.394Z,165
2017-08-30T08:15:00.904Z,160
2017-08-30T08:16:14.403Z,160
2017-08-30T08:17:27.941Z,170
2017-08-30T08:18:41.600Z,175
2017-08-30T08:19:55.481Z,175
2017-08-30T08:21:09.131Z,180
2017-08-30T08:22:23.000Z,180
2017-08-30T08:23:37.062Z,175
2017-08-30T08:24:50.586Z,180
2017-08-30T08:26:04.794Z,185
2017-08-30T08:27:18.318Z,190
2017-08-30T08:28:32.226Z,195
2017-08-30T08:29:45.804Z,195
2017-08-30T08:30:59.341Z,195
2017-08-30T08:32:13.234Z,190
2017-08-30T08:33:26.775Z,195
2017-08-30T08:34:40.330Z,200
2017-08-30T08:35:53.993Z,200
2017-08-30T08:37:07.550Z,205
2017-08-30T08:38:21.361Z,205
2017-08-30T08:39:35.401Z,205
2017-08-30T08:40:48.976Z,200
2017-08-30T08:42:02.845Z,195
2017-08-30T08:43:16.378Z,195
2017-08-30T08:44:30.386Z,195
2017-08-30T08:45:44.000Z,195
2017-08-30T08:46:57.862Z,200
2017-08-30T08:48:11.386Z,200
2017-08-30T08:49:24.926Z,195
2017-08-30T08:50:38.761Z,190
2017-08-30T08:51:52.288Z,190
2017-08-30T08:53:05.816Z,190
2017-08-30T08:54:19.888Z,185
2017-08-30T08:55:33.406Z,185
2017-08-30T08:56:47.391Z,185
2017-08-30T08:58:02.130Z,185
2017-08-30T08:59:15.853Z,185
2017-08-30T09:00:29.362Z,180
2017-08-30T09:01:42.926Z,180
2017-08-30T09:02:56.763Z,180
2017-08-30T09:04:10.319Z,180
2017-08-30T09:05:23.896Z,180
2017-08-30T09:06:37.473Z,180
2017-08-30T09:07:50.982Z,175
2017-08-30T09:09:04.918Z,175
2017-08-30T09:10:18.454Z,175
2017-08-30T09:11:32.169Z,175
2017-08-30T09:12:47.998Z,170
2017-08-30T09:14:02.195Z,170
2017-08-30T09:15:16.512Z,170
2017-08-30T09:16:30.182Z,170
2017-08-30T09:17:44.377Z,170
2017-08-30T09:18:57.947Z,170
2017-08-30T09:20:11.508Z,170
2017-08-30T09:21:25.909Z,165
2017-08-30T09:22:40.100Z,165
2017-08-30T09:23:53.666Z,165
2017-08-30T09:25:07.228Z,170
2017-08-30T09:26:20.800Z,170
2017-08-30T09:27:34.653Z,170
2017-08-30T09:28:48.206Z,170
2017-08-30T09:30:02.163Z,170
2017-08-30T09:31:16.052Z,170
2017-08-30T09:32:29.696Z,160
2017-08-30T09:33:43.565Z,155
2017-08-30T09:34:57.166Z,160
2017-08-30T09:36:10.840Z,165
2017-08-30T09:37:24.384Z,165
2017-08-30T09:38:37.950Z,175
2017-08-30T09:39:51.815Z,175
2017-08-30T09:41:05.371Z,175
2017-08-30T09:42:18.906Z,180
2017-08-30T09:43:32.474Z,190
2017-08-30T09:44:46.019Z,200
2017-08-30T09:45:59.863Z,215
2017-08-30T09:47:13.683Z,220
2017-08-30T09:48:27.216Z,225
2017-08-30T09:49:40.761Z,225
2017-08-30T09:50:54.496Z,225
2017-08-30T09:52:08.912Z,230
2017-08-30T09:53:22.767Z,225
2017-08-30T09:54:36.563Z,225
2017-08-30T09:55:50.645Z,230
2017-08-30T09:57:04.190Z,235
2017-08-30T09:58:18.038Z,240
2017-08-30T09:59:31.625Z,245
2017-08-30T10:00:45.155Z,245
2017-08-30T10:01:58.799Z,250
2017-08-30T10:03:12.324Z,245
2017-08-30T10:04:26.488Z,245
2017-08-30T10:05:40.059Z,240
2017-08-30T10:06:53.571Z,235
2017-08-30T10:08:07.096Z,230
2017-08-30T10:09:20.808Z,225
2017-08-30T10:10:34.620Z,220
2017-08-30T10:11:48.701Z,215
2017-08-30T10:13:02.215Z,210
2017-08-30T10:14:15.757Z,200
2017-08-30T10:15:29.475Z,195
2017-08-30T10:16:43.328Z,195
2017-08-30T10:17:56.962Z,195
2017-08-30T10:19:10.525Z,200
2017-08-30T10:20:24.055Z,205
2017-08-30T10:21:38.145Z,220
2017-08-30T10:22:52.060Z,225
2017-08-30T10:24:06.115Z,230
2017-08-30T10:25:20.057Z,235
2017-08-30T10:26:33.562Z,235
2017-08-30T10:27:47.144Z,235
2017-08-30T10:29:00.959Z,235
2017-08-30T10:30:14.525Z,230
2017-08-30T10:31:28.645Z,225
2017-08-30T10:32:42.610Z,220
2017-08-30T10:33:56.113Z,220
2017-08-30T10:35:09.903Z,220
2017-08-30T10:36:23.432Z,215
2017-08-30T10:37:37.000Z,215
2017-08-30T10:38:50.503Z,210
2017-08-30T10:40:04.393Z,205
2017-08-30T10:41:18.548Z,205
2017-08-30T10:42:32.087Z,200
2017-08-30T10:43:45.610Z,195
2017-08-30T10:44:59.195Z,190
2017-08-30T10:46:12.710Z,185
2017-08-30T10:47:26.865Z,180
2017-08-30T10:48:40.910Z,175
2017-08-30T10:49:54.448Z,170
2017-08-30T10:51:08.010Z,165
2017-08-30T10:52:21.554Z,170
2017-08-30T10:53:35.361Z,170
2017-08-30T10:54:48.899Z,165
2017-08-30T10:56:03.083Z,165
2017-08-30T10:57:16.796Z,165
2017-08-30T10:58:30.471Z,160
2017-08-30T10:59:44.725Z,160
2017-08-30T11:00:58.687Z,160
2017-08-30T11:02:12.240Z,160
2017-08-30T11:03:25.776Z,155
2017-08-30T11:04:39.401Z,155
2017-08-30T11:05:53.249Z,155
2017-08-30T11:07:06.794Z,155
2017-08-30T11:08:20.316Z,155
2017-08-30T11:09:34.095Z,160
2017-08-30T11:10:47.624Z,160
2017-08-30T11:12:01.602Z,165
2017-08-30T11:13:15.139Z,170
2017-08-30T11:14:28.679Z,175
2017-08-30T11:15:42.253Z,180
2017-08-30T11:16:55.809Z,180
2017-08-30T11:18:09.642Z,180
2017-08-30T11:19:23.308Z,180
2017-08-30T11:20:36.863Z,180
2017-08-30T11:21:50.490Z,180
2017-08-30T11:23:04.056Z,180
2017-08-30T11:24:17.947Z,175
2017-08-30T11:25:31.506Z,175
2017-08-30T11:26:45.189Z,175
2017-08-30T11:27:58.734Z,175
2017-08-30T11:29:12.284Z,175
2017-08-30T11:30:26.156Z,175
2017-08-30T11:31:39.691Z,175
2017-08-30T11:32:53.233Z,170
2017-08-30T11:34:06.794Z,170
2017-08-30T11:35:20.326Z,165
2017-08-30T11:36:34.166Z,165
2017-08-30T11:37:47.807Z,165
2017-08-30T11:39:01.543Z,165
2017-08-30T11:40:15.422Z,170
2017-08-30T11:41:29.208Z,170
2017-08-30T11:42:43.126Z,175
2017-08-30T11:43:56.678Z,175
2017-08-30T11:45:10.229Z,175
2017-08-30T11:46:23.764Z,175
2017-08-30T11:47:37.443Z,180
2017-08-30T11:48:51.314Z,180
2017-08-30T11:50:04.865Z,185
2017-08-30T11:51:18.423Z,180
2017-08-30T11:52:32.415Z,180
2017-08-30T11:53:46.140Z,175
2017-08-30T11:55:00.017Z,180
2017-08-30T11:56:13.680Z,175
2017-08-30T11:57:27.472Z,175
2017-08-30T11:58:41.087Z,165
2017-08-30T11:59:55.205Z,165
2017-08-30T12:01:09.035Z,170
2017-08-30T12:02:23.012Z,170
2017-08-30T12:03:36.665Z,180
2017-08-30T12:04:50.623Z,195
2017-08-30T12:06:04.348Z,205
2017-08-30T12:07:18.204Z,210
2017-08-30T12:08:31.755Z,210
2017-08-30T12:09:45.632Z,215
2017-08-30T12:10:59.196Z,210
2017-08-30T12:12:13.107Z,205
2017-08-30T12:13:26.992Z,205
2017-08-30T12:14:40.924Z,205
2017-08-30T12:15:54.518Z,205
2017-08-30T12:17:08.167Z,210
2017-08-30T12:18:21.719Z,220
2017-08-30T12:19:35.593Z,220
2017-08-30T12:20:49.248Z,225
2017-08-30T12:22:03.124Z,220
2017-08-30T12:23:16.679Z,220
2017-08-30T12:24:30.589Z,220
2017-08-30T12:25:44.527Z,215
2017-08-30T12:26:58.088Z,205
2017-08-30T12:28:11.643Z,200
2017-08-30T12:29:25.546Z,195
2017-08-30T12:30:39.457Z,190
2017-08-30T12:31:53.384Z,190
2017-08-30T12:33:07.183Z,195
2017-08-30T12:34:20.731Z,200
2017-08-30T12:35:34.316Z,210
2017-08-30T12:36:47.850Z,220
2017-08-30T12:38:01.704Z,230
2017-08-30T12:39:15.259Z,235
2017-08-30T12:40:28.910Z,240
2017-08-30T12:41:42.460Z,240
2017-08-30T12:42:56.010Z,245
2017-08-30T12:44:10.227Z,240
2017-08-30T12:45:24.035Z,235
2017-08-30T12:46:38.324Z,225
2017-08-30T12:47:52.204Z,210
2017-08-30T12:49:05.778Z,205
2017-08-30T12:50:19.716Z,205
2017-08-30T12:51:33.871Z,205
2017-08-30T12:52:47.760Z,205
2017-08-30T12:54:01.325Z,200
2017-08-30T12:55:14.889Z,195
2017-08-30T12:56:29.187Z,200
2017-08-30T12:57:42.743Z,210
2017-08-30T12:58:56.319Z,215
2017-08-30T13:00:09.868Z,205
2017-08-30T13:01:23.492Z,205
2017-08-30T13:02:37.325Z,215
2017-08-30T13:03:51.242Z,205
2017-08-30T13:05:04.777Z,215
2017-08-30T13:06:18.442Z,215
2017-08-30T13:07:31.964Z,225
2017-08-30T13:08:45.785Z,210
2017-08-30T13:09:59.317Z,200
2017-08-30T13:11:12.834Z,195
2017-08-30T13:12:26.421Z,190
2017-08-30T13:13:40.390Z,185
2017-08-30T13:14:54.285Z,170
2017-08-30T13:16:07.812Z,165
2017-08-30T13:17:21.360Z,170
2017-08-30T13:18:35.208Z,165
2017-08-30T13:19:49.330Z,160
2017-08-30T13:21:03.193Z,165
2017-08-30T13:22:16.782Z,160
2017-08-30T13:23:30.329Z,160
2017-08-30T13:24:43.861Z,170
2017-08-30T13:25:57.812Z,170
2017-08-30T13:27:12.013Z,165
2017-08-30T13:28:25.971Z,160
2017-08-30T13:29:39.598Z,170
2017-08-30T13:30:53.159Z,180
2017-08-30T13:32:07.382Z,180
2017-08-30T13:33:21.668Z,200
2017-08-30T13:34:35.278Z,205
2017-08-30T13:35:48.862Z,210
2017-08-30T13:37:02.405Z,210
2017-08-30T13:38:15.999Z,200
2017-08-30T13:39:30.033Z,190
2017-08-30T13:40:43.572Z,180
2017-08-30T13:41:57.110Z,175
2017-08-30T13:43:11.006Z,170
2017-08-30T13:44:24.545Z,160
2017-08-30T13:45:38.375Z,155
2017-08-30T13:46:52.226Z,160
2017-08-30T13:48:05.755Z,160
2017-08-30T13:49:19.344Z,165
2017-08-30T13:50:32.851Z,170
2017-08-30T13:51:46.674Z,160
2017-08-30T13:53:00.243Z,155
2017-08-30T13:54:14.338Z,170
2017-08-30T13:55:28.109Z,175
2017-08-30T13:56:41.636Z,180
2017-08-30T13:57:55.470Z,180
2017-08-30T13:59:09.066Z,180
2017-08-30T14:00:22.973Z,175
2017-08-30T14:01:36.523Z,175
2017-08-30T14:02:50.189Z,175
2017-08-30T14:04:04.453Z,175
2017-08-30T14:05:17.995Z,180
2017-08-30T14:06:31.584Z,185
2017-08-30T14:07:45.605Z,190
2017-08-30T14:08:59.145Z,185
2017-08-30T14:10:44.783Z,175
2017-08-30T14:11:58.513Z,175
2017-08-30T14:13:12.065Z,175
2017-08-30T14:14:25.626Z,180
2017-08-30T14:15:39.976Z,185
2017-08-30T14:16:53.505Z,190
2017-08-30T14:18:07.067Z,190
2017-08-30T14:19:20.588Z,190
2017-08-30T14:20:47.471Z,190
2017-08-30T14:22:01.032Z,200
2017-08-30T14:23:14.561Z,205
2017-08-30T14:24:28.179Z,215
2017-08-30T14:25:41.738Z,215
2017-08-30T14:26:55.590Z,220
2017-08-30T14:28:09.390Z,220
2017-08-30T14:29:22.974Z,210
2017-08-30T14:30:37.077Z,195
2017-08-30T14:31:50.659Z,185
2017-08-30T14:33:04.555Z,170
2017-08-30T14:34:18.118Z,165
2017-08-30T14:35:32.011Z,160
2017-08-30T14:36:45.599Z,155
2017-08-30T14:37:59.124Z,165
2017-08-30T14:39:12.982Z,160
2017-08-30T14:40:26.609Z,155
2017-08-30T14:41:40.133Z,165
2017-08-30T14:42:53.839Z,165
2017-08-30T14:44:07.400Z,175
2017-08-30T14:45:21.307Z,170
2017-08-30T14:46:34.835Z,160
2017-08-30T14:47:48.585Z,160
2017-08-30T14:49:02.349Z,155
2017-08-30T14:50:15.967Z,150
2017-08-30T14:51:29.937Z,155
2017-08-30T14:52:43.472Z,150
2017-08-30T14:53:57.340Z,155
2017-08-30T14:55:10.886Z,165
2017-08-30T14:56:24.427Z,160
2017-08-30T14:57:38.248Z,160
2017-08-30T14:58:51.804Z,165
2017-08-30T15:00:05.380Z,165
2017-08-30T15:01:19.274Z,160
2017-08-30T15:02:32.876Z,155
2017-08-30T15:03:46.848Z,145
2017-08-30T15:05:00.365Z,135
2017-08-30T15:06:13.966Z,135
2017-08-30T15:07:27.517Z,140
2017-08-30T15:08:41.031Z,145
2017-08-30T15:09:55.245Z,140
2017-08-30T15:11:08.877Z,135
2017-08-30T15:12:22.893Z,130
2017-08-30T15:13:36.396Z,130
2017-08-30T15:14:49.937Z,135
2017-08-30T15:16:03.766Z,130
2017-08-30T15:17:17.637Z,135
2017-08-30T15:18:31.182Z,130
2017-08-30T15:19:44.721Z,130
2017-08-30T15:20:58.274Z,135
2017-08-30T15:22:12.480Z,135
2017-08-30T15:23:26.051Z,135
2017-08-30T15:24:40.658Z,140
2017-08-30T15:25:54.253Z,140
2017-08-30T15:27:07.775Z,140
2017-08-30T15:28:21.982Z,145
2017-08-30T15:29:35.829Z,140
2017-08-30T15:30:49.359Z,140
2017-08-30T15:32:02.900Z,140
2017-08-30T15:33:16.528Z,135
2017-08-30T15:34:30.342Z,130
2017-08-30T15:35:43.865Z,130
2017-08-30T15:36:57.421Z,120
2017-08-30T15:38:10.974Z,115
2017-08-30T15:39:24.515Z,110
2017-08-30T15:40:38.356Z,100
2017-08-30T15:41:52.051Z,95
2017-08-30T15:43:07.024Z,80
2017-08-30T15:44:20.528Z,75
2017-08-30T15:45:34.082Z,75
2017-08-30T15:46:47.916Z,65
2017-08-30T15:48:01.451Z,60
2017-08-30T15:49:15.264Z,55
2017-08-30T15:50:28.801Z,60
2017-08-30T15:51:42.320Z,60
2017-08-30T15:52:56.146Z,55
2017-08-30T15:54:09.747Z,50
2017-08-30T15:55:23.420Z,45
2017-08-30T15:56:36.969Z,45
2017-08-30T15:57:50.814Z,50
2017-08-30T15:59:04.638Z,50
2017-08-30T16:00:18.170Z,50
2017-08-30T16:01:31.708Z,45
2017-08-30T16:02:45.383Z,45
2017-08-30T16:03:58.924Z,45
2017-08-30T16:05:13.233Z,50
2017-08-30T16:06:27.077Z,50
2017-08-30T16:07:40.637Z,45
2017-08-30T16:08:54.489Z,40
2017-08-30T16:10:08.082Z,35
2017-08-30T16:11:22.667Z,40
2017-08-30T16:12:36.529Z,45
2017-08-30T16:13:50.060Z,35
2017-08-30T16:15:03.647Z,20
2017-08-30T16:16:17.194Z,15
2017-08-30T16:17:31.100Z,15
2017-08-30T16:18:44.829Z,20
2017-08-30T16:19:58.340Z,25
2017-08-30T16:21:11.956Z,40
2017-08-30T16:22:25.545Z,55
2017-08-30T16:23:39.697Z,55
2017-08-30T16:24:53.289Z,40
2017-08-30T16:26:06.887Z,40
2017-08-30T16:27:20.423Z,40
2017-08-30T16:28:33.946Z,35
2017-08-30T16:29:48.757Z,35
2017-08-30T16:31:02.392Z,35
2017-08-30T16:32:15.920Z,25
2017-08-30T16:33:29.461Z,20
2017-08-30T16:34:42.994Z,20
2017-08-30T16:35:56.911Z,25
2017-08-30T16:37:10.443Z,30
2017-08-30T16:38:24.300Z,35
2017-08-30T16:39:38.441Z,45
2017-08-30T16:40:52.430Z,50
2017-08-30T16:42:06.567Z,45
2017-08-30T16:43:20.157Z,40
2017-08-30T16:44:33.684Z,35
2017-08-30T16:45:47.226Z,35
2017-08-30T16:47:00.930Z,40
2017-08-30T16:48:14.779Z,35
2017-08-30T16:49:28.648Z,35
2017-08-30T16:50:42.164Z,35
2017-08-30T16:51:55.707Z,30
2017-08-30T16:53:09.293Z,25
2017-08-30T16:54:23.472Z,25
2017-08-30T16:55:37.182Z,20
2017-08-30T16:56:50.692Z,25
2017-08-30T16:58:04.632Z,25
2017-08-30T16:59:19.029Z,25
2017-08-30T17:00:33.554Z,25
2017-08-30T17:01:47.248Z,25
2017-08-30T17:03:00.893Z,25
2017-08-30T17:04:14.424Z,30
2017-08-30T17:05:27.931Z,30
2017-08-30T17:06:41.754Z,30
2017-08-30T17:07:55.455Z,30
2017-08-30T17:09:08.991Z,30
2017-08-30T17:10:22.550Z,30
2017-08-30T17:11:36.094Z,30
2017-08-30T17:12:50.265Z,30
2017-08-30T17:14:03.861Z,30
2017-08-30T17:15:17.533Z,30
2017-08-30T17:16:31.062Z,30
2017-08-30T17:17:44.926Z,25
2017-08-30T17:18:58.741Z,25
2017-08-30T17:20:12.281Z,25
2017-08-30T17:21:25.814Z,25